METAR Data
IDs: Format: Raw Decoded Include TAF

Data at: 0711 UTC 03 Aug 2021

KMAE 030653Z AUTO 30006KT 9SM CLR 22/12 A2998 RMK AO2 SLP148 T02170122
KMAE 030553Z AUTO 28007KT 7SM CLR 22/13 A2997 RMK AO2 SLP145 T02220128 10367 20217 51009
KMAE 030453Z AUTO 28006KT 6SM HZ CLR 23/13 A2996 RMK AO2 SLP144 T02280128
KMAE 030353Z AUTO 29006KT 8SM CLR 27/14 A2995 RMK AO2 SLP139 T02670139
KMAE 030253Z AUTO 29006KT 10SM CLR 29/14 A2994 RMK AO2 SLP136 T02890139 55005
KMAE 030153Z AUTO 31008KT 10SM CLR 34/12 A2994 RMK AO2 SLP135 T03440117
KMAE 030053Z AUTO 30009KT 10SM CLR 35/12 A2994 RMK AO2 SLP137 T03500117
KMAE 022353Z AUTO 29008KT 10SM CLR 37/09 A2995 RMK AO2 SLP140 T03670094 10367 20278 56020
KMAE 022253Z AUTO 30008KT 10SM CLR 36/09 A2997 RMK AO2 SLP146 T03610089
KMAE 022153Z AUTO 30008KT 10SM CLR 35/12 A2999 RMK AO2 SLP153 T03500117
KMAE 022053Z AUTO 10SM CLR 33/12 A3001 RMK AO2 SLP160 T03330117 58018
KMAE 021953Z AUTO 10SM CLR 32/11 A3004 RMK AO2 SLP168 T03170111
KMAE 021853Z AUTO 30009KT 10SM CLR 30/12 A3006 RMK AO2 SLP174 T03000117
KMAE 021753Z AUTO 34005KT 10SM CLR 27/13 A3007 RMK AO2 SLP178 T02720133 10278 20144 58006
KMAE 021653Z AUTO 30006KT 7SM CLR 25/13 A3008 RMK AO2 SLP181 T02500133
KMAE 021553Z AUTO 31005KT 10SM CLR 22/13 A3009 RMK AO2 SLP186 T02170128
KMAE 021453Z AUTO 31004KT 10SM CLR 19/12 A3008 RMK AO2 SLP185 T01890122 51019
KMAE 021353Z AUTO 28004KT 10SM CLR 16/13 A3007 RMK AO2 SLP180 T01610128
KMAE 021253Z AUTO 26005KT 10SM CLR 15/12 A3005 RMK AO2 SLP172 T01500122
KMAE 021153Z AUTO 29005KT 10SM CLR 17/12 A3003 RMK AO2 SLP165 T01720117 10267 20172 53007
KMAE 021053Z AUTO 34007KT 10SM CLR 19/12 A3002 RMK AO2 SLP162 T01890117
KMAE 020953Z AUTO 32005KT 10SM CLR 19/12 A3002 RMK AO2 SLP161 T01940122
KMAE 020853Z AUTO 33010KT 10SM CLR 21/12 A3001 RMK AO2 SLP158 T02110117 53009
KMAE 020753Z AUTO 31007G16KT 10SM CLR 22/13 A2999 RMK AO2 SLP153 T02220128 404000167
KMAE 020653Z AUTO 29006KT 10SM CLR 23/14 A2999 RMK AO2 SLP152 T02330139
KMAE 020553Z AUTO 31009G20KT 10SM CLR 27/13 A2998 RMK AO2 SLP148 T02670128 10400 20261 51018
KMAE 020453Z AUTO 30009KT 10SM CLR 27/15 A2997 RMK AO2 SLP145 T02720150
KMAE 020353Z AUTO 29006KT 10SM CLR 29/16 A2995 RMK AO2 SLP137 T02890161
KMAE 020253Z AUTO 30009G17KT 10SM CLR 32/16 A2992 RMK AO2 SLP130 T03220161 53002
KMAE 020153Z AUTO 30008KT 10SM CLR 37/14 A2991 RMK AO2 SLP124 T03670139
KMAE 020053Z AUTO 23005KT 10SM CLR 39/09 A2991 RMK AO2 SLP125 T03940089
KMAE 012353Z AUTO 24005KT 10SM CLR 40/08 A2992 RMK AO2 SLP127 T04000083 10400 20300 56019
KMAE 012253Z AUTO VRB03KT 10SM CLR 40/09 A2993 RMK AO2 SLP132 T04000094
KMAE 012153Z AUTO VRB03KT 10SM CLR 38/09 A2995 RMK AO2 SLP139 T03830089
KMAE 012053Z AUTO VRB04KT 10SM CLR 36/09 A2998 RMK AO2 SLP147 T03610089 58016
KMAE 011953Z AUTO VRB05KT 10SM CLR 34/12 A3000 RMK AO2 SLP154 T03440117